TimeEDT,TemperatureF,Dew PointF,Humidity,Sea Level PressureIn,VisibilityMPH,Wind Direction,Wind SpeedMPH,Gust SpeedMPH,PrecipitationIn,Events,Conditions,WindDirDegrees,DateUTC
12:15 AM,48.4,35.4,61,29.65,10.0,SSE,4.6,-,N/A,,Overcast,160,2012-10-19 04:15:00
12:35 AM,48.2,35.4,61,29.64,10.0,SE,5.8,-,N/A,,Mostly Cloudy,140,2012-10-19 04:35:00
12:54 AM,47.8,35.1,61,29.64,10.0,SE,4.6,-,N/A,,Scattered Clouds,140,2012-10-19 04:54:00
1:15 AM,47.3,35.6,64,29.63,10.0,SE,5.8,-,N/A,,Scattered Clouds,130,2012-10-19 05:15:00
1:35 AM,46.8,35.1,64,29.64,10.0,SSE,4.6,-,N/A,,Scattered Clouds,150,2012-10-19 05:35:00
1:54 AM,46.6,35.2,65,29.64,10.0,SE,3.5,-,N/A,,Scattered Clouds,140,2012-10-19 05:54:00
2:15 AM,46.6,35.6,66,29.63,10.0,SE,4.6,-,N/A,,Mostly Cloudy,130,2012-10-19 06:15:00
2:34 AM,46.4,35.6,66,29.63,10.0,East,4.6,-,N/A,,Overcast,100,2012-10-19 06:34:00
2:55 AM,46.8,36.0,66,29.62,10.0,ESE,3.5,-,N/A,,Overcast,110,2012-10-19 06:55:00
3:15 AM,46.6,36.1,67,29.62,10.0,East,3.5,-,N/A,,Overcast,100,2012-10-19 07:15:00
3:34 AM,46.8,36.5,67,29.62,10.0,East,5.8,-,N/A,,Overcast,100,2012-10-19 07:34:00
3:55 AM,47.3,37.4,68,29.61,10.0,ESE,8.1,-,N/A,,Overcast,120,2012-10-19 07:55:00
4:15 AM,48.2,37.6,67,29.62,10.0,ESE,8.1,-,N/A,,Overcast,120,2012-10-19 08:15:00
4:34 AM,48.2,37.8,67,29.61,10.0,ESE,8.1,-,N/A,,Overcast,120,2012-10-19 08:34:00
4:55 AM,48.2,38.3,69,29.61,10.0,ESE,5.8,-,N/A,,Overcast,120,2012-10-19 08:55:00
5:15 AM,48.2,39.2,71,29.61,10.0,SE,4.6,-,N/A,,Overcast,130,2012-10-19 09:15:00
5:34 AM,48.0,41.4,78,29.60,10.0,SE,8.1,-,N/A,,Mostly Cloudy,130,2012-10-19 09:34:00
5:55 AM,48.2,43.9,85,29.60,10.0,SSE,6.9,-,N/A,,Mostly Cloudy,150,2012-10-19 09:55:00
6:15 AM,48.7,44.6,86,29.60,10.0,SE,4.6,-,N/A,,Mostly Cloudy,140,2012-10-19 10:15:00
6:34 AM,48.7,45.1,87,29.60,10.0,SE,4.6,-,N/A,,Overcast,130,2012-10-19 10:34:00
6:55 AM,49.1,45.7,88,29.61,10.0,SE,5.8,-,N/A,Rain,Light Rain,140,2012-10-19 10:55:00
7:15 AM,48.9,46.2,90,29.61,10.0,SE,4.6,-,N/A,,Overcast,130,2012-10-19 11:15:00
7:35 AM,49.1,46.4,90,29.60,10.0,SE,6.9,-,N/A,,Overcast,140,2012-10-19 11:35:00
7:55 AM,49.6,46.6,89,29.60,10.0,ESE,8.1,-,N/A,,Overcast,120,2012-10-19 11:55:00
8:14 AM,49.6,46.8,90,29.60,10.0,ESE,5.8,-,N/A,Rain,Light Rain,120,2012-10-19 12:14:00
8:35 AM,49.6,47.3,92,29.60,10.0,ESE,8.1,-,N/A,,Light Drizzle,110,2012-10-19 12:35:00
8:55 AM,50.0,47.3,90,29.60,10.0,SE,6.9,-,N/A,Rain,Light Rain,130,2012-10-19 12:55:00
9:14 AM,50.0,47.7,92,29.61,10.0,SE,5.8,-,N/A,Rain,Rain,130,2012-10-19 13:14:00
9:35 AM,50.0,48.2,94,29.60,10.0,ESE,5.8,-,N/A,,Drizzle,120,2012-10-19 13:35:00
9:55 AM,50.0,48.2,94,29.60,10.0,ESE,8.1,-,N/A,Rain,Light Rain,110,2012-10-19 13:55:00
10:14 AM,50.4,48.6,94,29.60,10.0,ESE,6.9,-,N/A,Rain,Rain,110,2012-10-19 14:14:00
10:35 AM,50.5,49.1,95,29.59,10.0,ESE,6.9,-,N/A,,Drizzle,110,2012-10-19 14:35:00
10:55 AM,50.9,49.3,94,29.59,10.0,SE,6.9,-,N/A,,Drizzle,130,2012-10-19 14:55:00
11:14 AM,51.4,48.6,90,29.59,10.0,SE,5.8,-,N/A,Rain,Light Rain,130,2012-10-19 15:14:00
11:35 AM,51.8,47.8,86,29.59,10.0,SE,8.1,-,N/A,Rain,Light Rain,140,2012-10-19 15:35:00
11:54 AM,52.3,48.0,85,29.58,10.0,SE,9.2,-,N/A,,Light Drizzle,140,2012-10-19 15:54:00
12:15 PM,53.4,46.4,77,29.57,10.0,SE,12.7,18.4,N/A,Rain,Light Rain,140,2012-10-19 16:15:00
12:35 PM,54.0,42.1,64,29.57,10.0,SE,10.4,17.3,N/A,,Overcast,130,2012-10-19 16:35:00
12:54 PM,54.0,40.8,61,29.56,10.0,SE,9.2,18.4,N/A,,Overcast,140,2012-10-19 16:54:00
1:15 PM,54.9,41.2,60,29.56,10.0,SSE,10.4,18.4,N/A,,Overcast,150,2012-10-19 17:15:00
1:34 PM,54.5,39.4,57,29.55,10.0,SSE,18.4,27.6,N/A,,Overcast,160,2012-10-19 17:34:00
1:55 PM,55.0,39.9,57,29.55,10.0,SSE,15.0,21.9,N/A,,Overcast,150,2012-10-19 17:55:00
2:15 PM,54.5,41.4,61,29.54,10.0,SSE,11.5,20.7,N/A,Rain,Light Rain,150,2012-10-19 18:15:00
2:34 PM,56.5,41.5,57,29.54,10.0,South,10.4,-,N/A,,Overcast,180,2012-10-19 18:34:00
2:55 PM,55.6,39.0,54,29.54,10.0,South,12.7,19.6,N/A,,Overcast,190,2012-10-19 18:55:00
3:15 PM,55.2,38.7,54,29.54,10.0,South,12.7,17.3,N/A,,Overcast,190,2012-10-19 19:15:00
3:34 PM,55.4,38.8,54,29.54,10.0,SSE,12.7,-,N/A,,Overcast,160,2012-10-19 19:34:00
3:55 PM,55.4,39.0,54,29.54,10.0,South,10.4,-,N/A,,Overcast,170,2012-10-19 19:55:00
4:14 PM,54.7,39.0,56,29.54,10.0,South,6.9,-,N/A,,Overcast,170,2012-10-19 20:14:00
4:35 PM,54.7,38.5,54,29.55,10.0,SSE,8.1,-,N/A,,Overcast,150,2012-10-19 20:35:00
4:55 PM,54.5,38.5,55,29.55,10.0,SSE,6.9,-,N/A,,Overcast,160,2012-10-19 20:55:00
5:14 PM,54.7,38.3,54,29.55,10.0,SSE,9.2,-,N/A,,Overcast,160,2012-10-19 21:14:00
5:35 PM,54.5,37.9,54,29.55,10.0,South,6.9,-,N/A,,Overcast,170,2012-10-19 21:35:00
5:55 PM,54.5,38.1,54,29.56,10.0,SSE,8.1,-,N/A,,Overcast,160,2012-10-19 21:55:00
6:14 PM,54.0,38.3,55,29.56,10.0,South,8.1,-,N/A,,Overcast,170,2012-10-19 22:14:00
6:35 PM,54.0,37.6,54,29.57,10.0,South,6.9,-,N/A,,Overcast,170,2012-10-19 22:35:00
6:55 PM,53.6,38.1,56,29.57,10.0,SSE,4.6,-,N/A,,Overcast,160,2012-10-19 22:55:00
7:14 PM,53.4,37.8,55,29.57,10.0,SSE,4.6,-,N/A,,Overcast,150,2012-10-19 23:14:00
7:35 PM,52.7,39.4,61,29.58,10.0,SE,10.4,-,N/A,,Overcast,130,2012-10-19 23:35:00
7:54 PM,52.0,39.6,63,29.58,10.0,SSE,10.4,-,N/A,,Overcast,150,2012-10-19 23:54:00
8:15 PM,50.9,40.1,67,29.58,10.0,SE,10.4,18.4,N/A,,Overcast,140,2012-10-20 00:15:00
8:35 PM,50.0,41.0,71,29.58,10.0,SSE,9.2,-,N/A,,Overcast,150,2012-10-20 00:35:00
8:54 PM,49.1,42.1,77,29.58,10.0,SSE,8.1,-,N/A,Rain,Light Rain,150,2012-10-20 00:54:00
9:15 PM,48.4,43.5,83,29.58,10.0,SSE,6.9,-,N/A,,Drizzle,150,2012-10-20 01:15:00
9:35 PM,47.7,44.6,89,29.58,10.0,SSE,5.8,-,N/A,,Drizzle,150,2012-10-20 01:35:00
9:54 PM,47.3,45.1,92,29.59,10.0,SSE,5.8,-,N/A,,Drizzle,160,2012-10-20 01:54:00
10:15 PM,46.6,45.0,94,29.58,7.0,South,5.8,-,N/A,Rain,Heavy Rain,170,2012-10-20 02:15:00
10:35 PM,46.4,45.1,95,29.58,7.0,SSE,3.5,-,N/A,Rain,Light Rain,160,2012-10-20 02:35:00
10:55 PM,46.0,45.1,97,29.58,10.0,Calm,Calm,-,N/A,Rain,Rain,0,2012-10-20 02:55:00
11:15 PM,45.9,45.3,98,29.58,7.0,Calm,Calm,-,N/A,Rain,Light Rain,0,2012-10-20 03:15:00
11:34 PM,45.9,45.5,99,29.57,7.0,SE,3.5,-,N/A,,Drizzle,140,2012-10-20 03:34:00
11:55 PM,45.9,45.5,99,29.57,5.0,Calm,Calm,-,N/A,,Drizzle,0,2012-10-20 03:55:00